sensor_id;sensor_type;location;lat;lon;timestamp;P1;durP1;ratioP1;P2;durP2;ratioP2
21140;SDS011;10728;53.284;10.314;2022-07-21T00:01:53;21.38;;;14.43;;
21140;SDS011;10728;53.284;10.314;2022-07-21T00:08:44;20.75;;;15.27;;
21140;SDS011;10728;53.284;10.314;2022-07-21T00:15:41;20.17;;;13.98;;
21140;SDS011;10728;53.284;10.314;2022-07-21T00:19:17;21.60;;;14.35;;
21140;SDS011;10728;53.284;10.314;2022-07-21T00:26:06;18.70;;;13.65;;
21140;SDS011;10728;53.284;10.314;2022-07-21T00:39:37;17.50;;;12.38;;
21140;SDS011;10728;53.284;10.314;2022-07-21T00:42:48;24.48;;;13.55;;
21140;SDS011;10728;53.284;10.314;2022-07-21T00:46:11;20.77;;;12.82;;
21140;SDS011;10728;53.284;10.314;2022-07-21T00:52:37;18.92;;;12.45;;
21140;SDS011;10728;53.284;10.314;2022-07-21T00:55:53;19.20;;;11.98;;
21140;SDS011;10728;53.284;10.314;2022-07-21T00:58:57;16.58;;;12.15;;
21140;SDS011;10728;53.284;10.314;2022-07-21T01:02:24;17.25;;;10.95;;
21140;SDS011;10728;53.284;10.314;2022-07-21T01:05:42;16.35;;;11.50;;
21140;SDS011;10728;53.284;10.314;2022-07-21T01:12:54;15.70;;;11.57;;
21140;SDS011;10728;53.284;10.314;2022-07-21T01:16:13;15.52;;;11.95;;
21140;SDS011;10728;53.284;10.314;2022-07-21T01:19:24;18.00;;;12.35;;
21140;SDS011;10728;53.284;10.314;2022-07-21T01:22:53;16.15;;;12.40;;
21140;SDS011;10728;53.284;10.314;2022-07-21T01:25:46;17.35;;;13.23;;
21140;SDS011;10728;53.284;10.314;2022-07-21T01:28:48;16.50;;;12.32;;
21140;SDS011;10728;53.284;10.314;2022-07-21T01:31:58;19.27;;;13.20;;
21140;SDS011;10728;53.284;10.314;2022-07-21T01:34:42;16.75;;;11.32;;
21140;SDS011;10728;53.284;10.314;2022-07-21T01:38:00;18.67;;;11.48;;
21140;SDS011;10728;53.284;10.314;2022-07-21T01:44:52;17.35;;;10.80;;
21140;SDS011;10728;53.284;10.314;2022-07-21T01:52:07;16.67;;;10.23;;
21140;SDS011;10728;53.284;10.314;2022-07-21T02:06:38;22.25;;;12.52;;
21140;SDS011;10728;53.284;10.314;2022-07-21T02:10:20;23.30;;;12.43;;
21140;SDS011;10728;53.284;10.314;2022-07-21T02:17:25;18.95;;;12.55;;
21140;SDS011;10728;53.284;10.314;2022-07-21T02:21:06;17.90;;;11.07;;
21140;SDS011;10728;53.284;10.314;2022-07-21T02:27:59;19.13;;;12.25;;
21140;SDS011;10728;53.284;10.314;2022-07-21T02:31:35;20.70;;;11.90;;
21140;SDS011;10728;53.284;10.314;2022-07-21T02:34:54;19.33;;;12.15;;
21140;SDS011;10728;53.284;10.314;2022-07-21T02:37:55;18.48;;;11.85;;
21140;SDS011;10728;53.284;10.314;2022-07-21T02:55:59;21.25;;;12.85;;
21140;SDS011;10728;53.284;10.314;2022-07-21T02:59:28;23.35;;;12.27;;
21140;SDS011;10728;53.284;10.314;2022-07-21T03:02:35;25.48;;;11.77;;
21140;SDS011;10728;53.284;10.314;2022-07-21T03:09:36;18.92;;;12.00;;
21140;SDS011;10728;53.284;10.314;2022-07-21T03:16:38;18.20;;;11.63;;
21140;SDS011;10728;53.284;10.314;2022-07-21T03:23:56;18.98;;;11.43;;
21140;SDS011;10728;53.284;10.314;2022-07-21T03:31:12;18.08;;;10.93;;
21140;SDS011;10728;53.284;10.314;2022-07-21T03:57:40;15.25;;;7.85;;
21140;SDS011;10728;53.284;10.314;2022-07-21T06:07:09;12.75;;;6.30;;
21140;SDS011;10728;53.284;10.314;2022-07-21T06:09:54;12.93;;;6.28;;
21140;SDS011;10728;53.284;10.314;2022-07-21T06:12:30;14.02;;;5.75;;
21140;SDS011;10728;53.284;10.314;2022-07-21T06:15:27;15.57;;;6.63;;
21140;SDS011;10728;53.284;10.314;2022-07-21T06:18:15;11.77;;;6.55;;
21140;SDS011;10728;53.284;10.314;2022-07-21T06:20:50;8.10;;;5.07;;
21140;SDS011;10728;53.284;10.314;2022-07-21T06:23:46;10.20;;;5.55;;
21140;SDS011;10728;53.284;10.314;2022-07-21T06:26:38;12.95;;;6.78;;
21140;SDS011;10728;53.284;10.314;2022-07-21T06:29:11;10.00;;;5.90;;
21140;SDS011;10728;53.284;10.314;2022-07-21T06:31:53;15.35;;;7.32;;
21140;SDS011;10728;53.284;10.314;2022-07-21T06:34:30;15.23;;;6.88;;
21140;SDS011;10728;53.284;10.314;2022-07-21T06:36:55;13.25;;;6.95;;
21140;SDS011;10728;53.284;10.314;2022-07-21T06:39:56;11.35;;;6.00;;
21140;SDS011;10728;53.284;10.314;2022-07-21T06:42:34;10.18;;;5.75;;
21140;SDS011;10728;53.284;10.314;2022-07-21T06:48:44;21.10;;;8.60;;
21140;SDS011;10728;53.284;10.314;2022-07-21T06:51:56;11.85;;;7.50;;
21140;SDS011;10728;53.284;10.314;2022-07-21T06:54:32;17.67;;;7.93;;
21140;SDS011;10728;53.284;10.314;2022-07-21T06:57:15;17.75;;;8.82;;
21140;SDS011;10728;53.284;10.314;2022-07-21T06:59:52;11.45;;;6.93;;
21140;SDS011;10728;53.284;10.314;2022-07-21T07:03:34;12.10;;;7.10;;
21140;SDS011;10728;53.284;10.314;2022-07-21T07:06:37;14.85;;;7.85;;
21140;SDS011;10728;53.284;10.314;2022-07-21T07:10:15;9.23;;;6.43;;
21140;SDS011;10728;53.284;10.314;2022-07-21T07:17:24;16.35;;;9.15;;
21140;SDS011;10728;53.284;10.314;2022-07-21T09:15:40;22.02;;;13.65;;
21140;SDS011;10728;53.284;10.314;2022-07-21T09:23:12;23.30;;;15.18;;
21140;SDS011;10728;53.284;10.314;2022-07-21T09:32:59;26.65;;;15.48;;
21140;SDS011;10728;53.284;10.314;2022-07-21T09:35:51;22.88;;;14.45;;
21140;SDS011;10728;53.284;10.314;2022-07-21T09:39:02;18.33;;;14.27;;
21140;SDS011;10728;53.284;10.314;2022-07-21T09:41:55;21.65;;;15.35;;
21140;SDS011;10728;53.284;10.314;2022-07-21T09:44:47;21.73;;;15.48;;
21140;SDS011;10728;53.284;10.314;2022-07-21T09:47:20;20.63;;;13.05;;
21140;SDS011;10728;53.284;10.314;2022-07-21T09:50:02;20.15;;;13.07;;
21140;SDS011;10728;53.284;10.314;2022-07-21T09:52:37;29.13;;;15.82;;
21140;SDS011;10728;53.284;10.314;2022-07-21T09:55:11;21.13;;;16.27;;
21140;SDS011;10728;53.284;10.314;2022-07-21T09:57:42;19.65;;;15.48;;
21140;SDS011;10728;53.284;10.314;2022-07-21T10:00:10;16.77;;;14.05;;
21140;SDS011;10728;53.284;10.314;2022-07-21T10:02:38;21.05;;;14.40;;
21140;SDS011;10728;53.284;10.314;2022-07-21T10:05:08;22.23;;;13.23;;
21140;SDS011;10728;53.284;10.314;2022-07-21T10:07:43;19.98;;;13.55;;
21140;SDS011;10728;53.284;10.314;2022-07-21T10:10:13;17.50;;;13.18;;
21140;SDS011;10728;53.284;10.314;2022-07-21T10:12:40;18.88;;;13.30;;
21140;SDS011;10728;53.284;10.314;2022-07-21T10:15:08;16.08;;;12.85;;
21140;SDS011;10728;53.284;10.314;2022-07-21T10:17:35;17.80;;;12.43;;
21140;SDS011;10728;53.284;10.314;2022-07-21T10:20:03;16.50;;;11.48;;
21140;SDS011;10728;53.284;10.314;2022-07-21T10:25:02;16.05;;;11.73;;
21140;SDS011;10728;53.284;10.314;2022-07-21T10:27:34;16.50;;;11.82;;
21140;SDS011;10728;53.284;10.314;2022-07-21T10:30:01;14.63;;;11.27;;
21140;SDS011;10728;53.284;10.314;2022-07-21T10:32:36;11.52;;;9.95;;
21140;SDS011;10728;53.284;10.314;2022-07-21T10:37:57;19.05;;;11.80;;
21140;SDS011;10728;53.284;10.314;2022-07-21T10:48:00;11.80;;;9.73;;
21140;SDS011;10728;53.284;10.314;2022-07-21T10:50:30;12.52;;;8.85;;
21140;SDS011;10728;53.284;10.314;2022-07-21T10:53:04;13.10;;;9.05;;
21140;SDS011;10728;53.284;10.314;2022-07-21T10:55:37;11.88;;;8.02;;
21140;SDS011;10728;53.284;10.314;2022-07-21T10:58:21;13.10;;;8.07;;
21140;SDS011;10728;53.284;10.314;2022-07-21T11:03:22;10.57;;;8.20;;
21140;SDS011;10728;53.284;10.314;2022-07-21T11:06:21;11.32;;;8.63;;
21140;SDS011;10728;53.284;10.314;2022-07-21T11:11:32;16.08;;;9.48;;
21140;SDS011;10728;53.284;10.314;2022-07-21T11:22:15;12.32;;;8.52;;
21140;SDS011;10728;53.284;10.314;2022-07-21T11:24:45;12.57;;;8.18;;
21140;SDS011;10728;53.284;10.314;2022-07-21T11:27:17;16.67;;;8.73;;
21140;SDS011;10728;53.284;10.314;2022-07-21T11:29:52;9.25;;;7.50;;
21140;SDS011;10728;53.284;10.314;2022-07-21T11:32:24;11.77;;;7.70;;
21140;SDS011;10728;53.284;10.314;2022-07-21T11:34:57;11.25;;;8.30;;
21140;SDS011;10728;53.284;10.314;2022-07-21T11:37:31;10.65;;;8.73;;
21140;SDS011;10728;53.284;10.314;2022-07-21T11:40:00;11.63;;;8.65;;
21140;SDS011;10728;53.284;10.314;2022-07-21T11:42:27;11.23;;;8.18;;
21140;SDS011;10728;53.284;10.314;2022-07-21T11:44:53;9.40;;;8.02;;
21140;SDS011;10728;53.284;10.314;2022-07-21T11:47:22;9.80;;;8.27;;
21140;SDS011;10728;53.284;10.314;2022-07-21T11:49:54;8.13;;;6.60;;
21140;SDS011;10728;53.284;10.314;2022-07-21T11:52:26;11.05;;;7.90;;
21140;SDS011;10728;53.284;10.314;2022-07-21T11:54:56;10.80;;;7.10;;
21140;SDS011;10728;53.284;10.314;2022-07-21T11:57:24;10.05;;;7.63;;
21140;SDS011;10728;53.284;10.314;2022-07-21T11:59:50;9.07;;;6.35;;
21140;SDS011;10728;53.284;10.314;2022-07-21T12:02:24;9.40;;;6.40;;
21140;SDS011;10728;53.284;10.314;2022-07-21T12:05:04;9.10;;;6.07;;
21140;SDS011;10728;53.284;10.314;2022-07-21T12:07:34;7.50;;;5.93;;
21140;SDS011;10728;53.284;10.314;2022-07-21T12:10:07;6.95;;;5.03;;
21140;SDS011;10728;53.284;10.314;2022-07-21T12:12:36;5.95;;;5.10;;
21140;SDS011;10728;53.284;10.314;2022-07-21T12:17:53;5.63;;;4.45;;
21140;SDS011;10728;53.284;10.314;2022-07-21T12:23:00;6.93;;;4.32;;
21140;SDS011;10728;53.284;10.314;2022-07-21T12:25:31;5.88;;;3.75;;
21140;SDS011;10728;53.284;10.314;2022-07-21T12:28:01;4.82;;;3.67;;
21140;SDS011;10728;53.284;10.314;2022-07-21T12:30:40;6.63;;;4.15;;
21140;SDS011;10728;53.284;10.314;2022-07-21T12:33:16;6.57;;;4.03;;
21140;SDS011;10728;53.284;10.314;2022-07-21T12:36:05;4.47;;;4.07;;
21140;SDS011;10728;53.284;10.314;2022-07-21T12:41:09;4.70;;;3.60;;
21140;SDS011;10728;53.284;10.314;2022-07-21T12:43:38;7.63;;;4.30;;
21140;SDS011;10728;53.284;10.314;2022-07-21T12:46:14;7.13;;;4.10;;
21140;SDS011;10728;53.284;10.314;2022-07-21T12:48:41;6.10;;;3.97;;
21140;SDS011;10728;53.284;10.314;2022-07-21T12:56:15;7.22;;;4.10;;
21140;SDS011;10728;53.284;10.314;2022-07-21T12:58:42;7.57;;;4.88;;
21140;SDS011;10728;53.284;10.314;2022-07-21T13:01:08;6.43;;;4.35;;
21140;SDS011;10728;53.284;10.314;2022-07-21T13:03:34;6.60;;;3.63;;
21140;SDS011;10728;53.284;10.314;2022-07-21T13:06:02;5.43;;;3.90;;
21140;SDS011;10728;53.284;10.314;2022-07-21T13:08:28;6.38;;;3.80;;
21140;SDS011;10728;53.284;10.314;2022-07-21T13:10:54;5.20;;;3.22;;
21140;SDS011;10728;53.284;10.314;2022-07-21T13:13:20;4.95;;;4.10;;
21140;SDS011;10728;53.284;10.314;2022-07-21T13:15:47;5.25;;;3.58;;
21140;SDS011;10728;53.284;10.314;2022-07-21T13:18:14;4.00;;;3.38;;
21140;SDS011;10728;53.284;10.314;2022-07-21T13:20:44;4.05;;;3.45;;
21140;SDS011;10728;53.284;10.314;2022-07-21T13:23:09;4.15;;;3.20;;
21140;SDS011;10728;53.284;10.314;2022-07-21T13:25:35;4.88;;;3.63;;
21140;SDS011;10728;53.284;10.314;2022-07-21T13:28:01;3.53;;;3.00;;
21140;SDS011;10728;53.284;10.314;2022-07-21T13:30:33;6.00;;;3.60;;
21140;SDS011;10728;53.284;10.314;2022-07-21T13:32:59;5.00;;;3.30;;
21140;SDS011;10728;53.284;10.314;2022-07-21T13:35:24;4.63;;;3.10;;
21140;SDS011;10728;53.284;10.314;2022-07-21T13:37:50;4.22;;;3.08;;
21140;SDS011;10728;53.284;10.314;2022-07-21T13:40:16;3.92;;;2.97;;
21140;SDS011;10728;53.284;10.314;2022-07-21T13:42:42;3.38;;;3.03;;
21140;SDS011;10728;53.284;10.314;2022-07-21T13:45:07;4.25;;;3.78;;
21140;SDS011;10728;53.284;10.314;2022-07-21T13:47:37;5.75;;;3.35;;
21140;SDS011;10728;53.284;10.314;2022-07-21T13:50:03;3.20;;;2.83;;
21140;SDS011;10728;53.284;10.314;2022-07-21T13:52:29;3.03;;;2.58;;
21140;SDS011;10728;53.284;10.314;2022-07-21T13:55:14;3.60;;;3.20;;
21140;SDS011;10728;53.284;10.314;2022-07-21T13:58:08;4.90;;;3.20;;
21140;SDS011;10728;53.284;10.314;2022-07-21T14:08:22;4.40;;;3.35;;
21140;SDS011;10728;53.284;10.314;2022-07-21T14:11:23;3.42;;;3.13;;
21140;SDS011;10728;53.284;10.314;2022-07-21T14:15:12;3.67;;;2.53;;
21140;SDS011;10728;53.284;10.314;2022-07-21T14:38:39;2.97;;;2.53;;
21140;SDS011;10728;53.284;10.314;2022-07-21T14:41:55;3.30;;;3.00;;
21140;SDS011;10728;53.284;10.314;2022-07-21T14:45:15;4.10;;;3.28;;
21140;SDS011;10728;53.284;10.314;2022-07-21T15:16:10;11.80;;;6.03;;
21140;SDS011;10728;53.284;10.314;2022-07-21T15:18:35;7.55;;;6.15;;
21140;SDS011;10728;53.284;10.314;2022-07-21T15:21:04;7.38;;;6.32;;
21140;SDS011;10728;53.284;10.314;2022-07-21T15:23:32;12.40;;;7.32;;
21140;SDS011;10728;53.284;10.314;2022-07-21T15:26:07;10.43;;;8.18;;
21140;SDS011;10728;53.284;10.314;2022-07-21T15:28:32;11.20;;;7.70;;
21140;SDS011;10728;53.284;10.314;2022-07-21T15:30:58;9.63;;;7.97;;
21140;SDS011;10728;53.284;10.314;2022-07-21T15:33:30;10.60;;;8.00;;
21140;SDS011;10728;53.284;10.314;2022-07-21T15:35:59;10.27;;;8.18;;
21140;SDS011;10728;53.284;10.314;2022-07-21T15:38:30;10.23;;;7.55;;
21140;SDS011;10728;53.284;10.314;2022-07-21T15:41:07;6.97;;;6.28;;
21140;SDS011;10728;53.284;10.314;2022-07-21T15:43:41;9.73;;;7.60;;
21140;SDS011;10728;53.284;10.314;2022-07-21T15:46:10;9.20;;;8.30;;
21140;SDS011;10728;53.284;10.314;2022-07-21T15:48:37;13.00;;;8.65;;
21140;SDS011;10728;53.284;10.314;2022-07-21T15:51:05;11.88;;;9.23;;
21140;SDS011;10728;53.284;10.314;2022-07-21T15:53:48;10.80;;;9.48;;
21140;SDS011;10728;53.284;10.314;2022-07-21T15:56:16;12.10;;;8.85;;
21140;SDS011;10728;53.284;10.314;2022-07-21T15:58:47;9.77;;;8.77;;
21140;SDS011;10728;53.284;10.314;2022-07-21T16:01:35;12.57;;;9.18;;
21140;SDS011;10728;53.284;10.314;2022-07-21T16:04:03;10.20;;;8.63;;
21140;SDS011;10728;53.284;10.314;2022-07-21T16:06:36;10.48;;;9.40;;
21140;SDS011;10728;53.284;10.314;2022-07-21T16:09:02;10.20;;;8.98;;
21140;SDS011;10728;53.284;10.314;2022-07-21T16:11:29;12.48;;;9.25;;
21140;SDS011;10728;53.284;10.314;2022-07-21T16:13:55;10.32;;;8.40;;
21140;SDS011;10728;53.284;10.314;2022-07-21T16:16:23;11.85;;;9.75;;
21140;SDS011;10728;53.284;10.314;2022-07-21T16:18:49;14.10;;;9.48;;
21140;SDS011;10728;53.284;10.314;2022-07-21T16:21:20;10.13;;;8.82;;
21140;SDS011;10728;53.284;10.314;2022-07-21T16:23:49;11.30;;;10.00;;
21140;SDS011;10728;53.284;10.314;2022-07-21T16:26:15;10.65;;;8.80;;
21140;SDS011;10728;53.284;10.314;2022-07-21T16:28:49;12.68;;;10.00;;
21140;SDS011;10728;53.284;10.314;2022-07-21T16:31:15;9.82;;;8.88;;
21140;SDS011;10728;53.284;10.314;2022-07-21T16:33:42;14.43;;;10.70;;
21140;SDS011;10728;53.284;10.314;2022-07-21T16:36:10;12.05;;;10.50;;
21140;SDS011;10728;53.284;10.314;2022-07-21T16:38:39;11.13;;;9.07;;
21140;SDS011;10728;53.284;10.314;2022-07-21T16:41:05;12.30;;;10.52;;
21140;SDS011;10728;53.284;10.314;2022-07-21T16:43:33;11.77;;;10.55;;
21140;SDS011;10728;53.284;10.314;2022-07-21T16:46:01;10.02;;;9.02;;
21140;SDS011;10728;53.284;10.314;2022-07-21T16:48:31;10.68;;;8.77;;
21140;SDS011;10728;53.284;10.314;2022-07-21T16:50:57;10.85;;;9.15;;
21140;SDS011;10728;53.284;10.314;2022-07-21T16:53:23;10.80;;;9.20;;
21140;SDS011;10728;53.284;10.314;2022-07-21T16:55:54;11.95;;;10.50;;
21140;SDS011;10728;53.284;10.314;2022-07-21T16:58:24;11.80;;;9.90;;
21140;SDS011;10728;53.284;10.314;2022-07-21T17:00:52;10.73;;;9.18;;
21140;SDS011;10728;53.284;10.314;2022-07-21T17:03:18;11.55;;;10.15;;
21140;SDS011;10728;53.284;10.314;2022-07-21T17:06:05;11.40;;;10.07;;
21140;SDS011;10728;53.284;10.314;2022-07-21T17:08:39;10.45;;;8.75;;
21140;SDS011;10728;53.284;10.314;2022-07-21T17:11:20;11.95;;;10.73;;
21140;SDS011;10728;53.284;10.314;2022-07-21T17:13:57;10.35;;;9.23;;
21140;SDS011;10728;53.284;10.314;2022-07-21T17:16:34;12.82;;;11.45;;
21140;SDS011;10728;53.284;10.314;2022-07-21T17:19:00;11.40;;;10.07;;
21140;SDS011;10728;53.284;10.314;2022-07-21T17:21:29;11.73;;;10.52;;
21140;SDS011;10728;53.284;10.314;2022-07-21T17:23:54;12.48;;;10.57;;
21140;SDS011;10728;53.284;10.314;2022-07-21T17:26:23;13.02;;;11.73;;
21140;SDS011;10728;53.284;10.314;2022-07-21T17:28:58;11.32;;;10.02;;
21140;SDS011;10728;53.284;10.314;2022-07-21T17:31:31;12.27;;;10.98;;
21140;SDS011;10728;53.284;10.314;2022-07-21T17:34:09;10.93;;;9.82;;
21140;SDS011;10728;53.284;10.314;2022-07-21T17:36:37;14.18;;;12.70;;
21140;SDS011;10728;53.284;10.314;2022-07-21T17:39:07;12.43;;;11.13;;
21140;SDS011;10728;53.284;10.314;2022-07-21T17:41:33;13.55;;;12.15;;
21140;SDS011;10728;53.284;10.314;2022-07-21T17:44:05;11.18;;;9.90;;
21140;SDS011;10728;53.284;10.314;2022-07-21T17:46:36;14.80;;;13.27;;
21140;SDS011;10728;53.284;10.314;2022-07-21T17:49:05;14.63;;;13.20;;
21140;SDS011;10728;53.284;10.314;2022-07-21T17:51:31;14.05;;;12.65;;
21140;SDS011;10728;53.284;10.314;2022-07-21T17:53:57;13.55;;;12.30;;
21140;SDS011;10728;53.284;10.314;2022-07-21T17:56:25;14.07;;;12.75;;
21140;SDS011;10728;53.284;10.314;2022-07-21T17:58:56;11.57;;;10.43;;
21140;SDS011;10728;53.284;10.314;2022-07-21T18:01:25;11.05;;;10.00;;
21140;SDS011;10728;53.284;10.314;2022-07-21T18:03:51;11.85;;;10.75;;
21140;SDS011;10728;53.284;10.314;2022-07-21T18:06:28;14.20;;;12.27;;
21140;SDS011;10728;53.284;10.314;2022-07-21T18:08:53;10.57;;;9.57;;
21140;SDS011;10728;53.284;10.314;2022-07-21T18:11:19;13.88;;;12.45;;
21140;SDS011;10728;53.284;10.314;2022-07-21T18:13:45;11.70;;;10.55;;
21140;SDS011;10728;53.284;10.314;2022-07-21T18:16:11;9.95;;;8.93;;
21140;SDS011;10728;53.284;10.314;2022-07-21T18:18:42;12.25;;;10.98;;
21140;SDS011;10728;53.284;10.314;2022-07-21T18:21:13;11.50;;;10.25;;
21140;SDS011;10728;53.284;10.314;2022-07-21T18:23:44;14.25;;;12.75;;
21140;SDS011;10728;53.284;10.314;2022-07-21T18:26:12;14.90;;;13.43;;
21140;SDS011;10728;53.284;10.314;2022-07-21T18:28:38;14.27;;;13.02;;
21140;SDS011;10728;53.284;10.314;2022-07-21T18:31:09;14.90;;;13.27;;
21140;SDS011;10728;53.284;10.314;2022-07-21T18:33:35;14.98;;;13.40;;
21140;SDS011;10728;53.284;10.314;2022-07-21T18:36:06;13.73;;;12.43;;
21140;SDS011;10728;53.284;10.314;2022-07-21T18:38:32;12.90;;;11.68;;
21140;SDS011;10728;53.284;10.314;2022-07-21T18:41:02;13.50;;;11.60;;
21140;SDS011;10728;53.284;10.314;2022-07-21T18:43:30;12.27;;;10.20;;
21140;SDS011;10728;53.284;10.314;2022-07-21T18:45:59;12.90;;;11.55;;
21140;SDS011;10728;53.284;10.314;2022-07-21T18:48:28;13.45;;;11.50;;
21140;SDS011;10728;53.284;10.314;2022-07-21T18:50:53;13.32;;;12.00;;
21140;SDS011;10728;53.284;10.314;2022-07-21T18:53:19;13.45;;;12.13;;
21140;SDS011;10728;53.284;10.314;2022-07-21T18:55:48;13.75;;;12.18;;
21140;SDS011;10728;53.284;10.314;2022-07-21T18:58:19;14.45;;;13.05;;
21140;SDS011;10728;53.284;10.314;2022-07-21T19:00:47;10.80;;;9.63;;
21140;SDS011;10728;53.284;10.314;2022-07-21T19:03:14;10.45;;;9.15;;
21140;SDS011;10728;53.284;10.314;2022-07-21T19:05:43;10.77;;;9.88;;
21140;SDS011;10728;53.284;10.314;2022-07-21T19:08:08;9.45;;;8.60;;
21140;SDS011;10728;53.284;10.314;2022-07-21T19:10:34;9.50;;;8.60;;
21140;SDS011;10728;53.284;10.314;2022-07-21T19:13:02;11.27;;;10.18;;
21140;SDS011;10728;53.284;10.314;2022-07-21T19:15:34;10.15;;;9.20;;
21140;SDS011;10728;53.284;10.314;2022-07-21T19:18:06;13.30;;;10.63;;
21140;SDS011;10728;53.284;10.314;2022-07-21T19:20:34;10.48;;;9.45;;
21140;SDS011;10728;53.284;10.314;2022-07-21T19:23:03;9.68;;;8.65;;
21140;SDS011;10728;53.284;10.314;2022-07-21T19:25:29;11.20;;;9.85;;
21140;SDS011;10728;53.284;10.314;2022-07-21T19:28:00;11.07;;;9.98;;
21140;SDS011;10728;53.284;10.314;2022-07-21T19:30:29;10.98;;;9.88;;
21140;SDS011;10728;53.284;10.314;2022-07-21T19:33:01;10.93;;;9.85;;
21140;SDS011;10728;53.284;10.314;2022-07-21T19:35:30;12.70;;;10.88;;
21140;SDS011;10728;53.284;10.314;2022-07-21T19:38:04;11.15;;;9.10;;
21140;SDS011;10728;53.284;10.314;2022-07-21T19:40:35;10.93;;;9.65;;
21140;SDS011;10728;53.284;10.314;2022-07-21T19:43:04;14.02;;;11.70;;
21140;SDS011;10728;53.284;10.314;2022-07-21T19:45:39;9.48;;;8.48;;
21140;SDS011;10728;53.284;10.314;2022-07-21T19:48:13;9.85;;;8.85;;
21140;SDS011;10728;53.284;10.314;2022-07-21T19:50:57;11.95;;;10.00;;
21140;SDS011;10728;53.284;10.314;2022-07-21T19:53:42;11.82;;;9.13;;
21140;SDS011;10728;53.284;10.314;2022-07-21T19:56:10;10.02;;;9.13;;
21140;SDS011;10728;53.284;10.314;2022-07-21T19:58:39;11.43;;;10.23;;
21140;SDS011;10728;53.284;10.314;2022-07-21T20:01:04;12.05;;;9.43;;
21140;SDS011;10728;53.284;10.314;2022-07-21T20:03:36;11.32;;;10.13;;
21140;SDS011;10728;53.284;10.314;2022-07-21T20:06:04;9.18;;;8.27;;
21140;SDS011;10728;53.284;10.314;2022-07-21T20:08:41;9.57;;;8.70;;
21140;SDS011;10728;53.284;10.314;2022-07-21T20:11:19;10.30;;;9.02;;
21140;SDS011;10728;53.284;10.314;2022-07-21T20:13:47;9.45;;;8.65;;
21140;SDS011;10728;53.284;10.314;2022-07-21T20:16:16;10.00;;;8.48;;
21140;SDS011;10728;53.284;10.314;2022-07-21T20:18:52;8.50;;;7.70;;
21140;SDS011;10728;53.284;10.314;2022-07-21T20:21:29;8.77;;;7.93;;
21140;SDS011;10728;53.284;10.314;2022-07-21T20:24:02;9.10;;;7.55;;
21140;SDS011;10728;53.284;10.314;2022-07-21T20:26:38;8.13;;;7.43;;
21140;SDS011;10728;53.284;10.314;2022-07-21T20:29:14;10.07;;;8.73;;
21140;SDS011;10728;53.284;10.314;2022-07-21T20:31:40;8.38;;;7.57;;
21140;SDS011;10728;53.284;10.314;2022-07-21T20:34:28;12.30;;;10.93;;
21140;SDS011;10728;53.284;10.314;2022-07-21T20:37:06;10.07;;;9.07;;
21140;SDS011;10728;53.284;10.314;2022-07-21T20:39:38;10.18;;;9.18;;
21140;SDS011;10728;53.284;10.314;2022-07-21T20:42:06;9.40;;;7.70;;
21140;SDS011;10728;53.284;10.314;2022-07-21T20:44:39;8.07;;;7.13;;
21140;SDS011;10728;53.284;10.314;2022-07-21T20:47:12;7.45;;;6.70;;
21140;SDS011;10728;53.284;10.314;2022-07-21T20:49:43;8.05;;;7.32;;
21140;SDS011;10728;53.284;10.314;2022-07-21T20:52:29;8.45;;;7.65;;
21140;SDS011;10728;53.284;10.314;2022-07-21T20:54:57;8.55;;;7.80;;
21140;SDS011;10728;53.284;10.314;2022-07-21T20:57:52;10.73;;;9.00;;
21140;SDS011;10728;53.284;10.314;2022-07-21T21:00:20;9.35;;;8.13;;
21140;SDS011;10728;53.284;10.314;2022-07-21T21:02:51;7.28;;;6.68;;
21140;SDS011;10728;53.284;10.314;2022-07-21T21:05:26;7.30;;;6.68;;
21140;SDS011;10728;53.284;10.314;2022-07-21T21:08:05;8.95;;;7.80;;
21140;SDS011;10728;53.284;10.314;2022-07-21T21:10:35;10.65;;;8.45;;
21140;SDS011;10728;53.284;10.314;2022-07-21T21:13:10;9.32;;;8.43;;
21140;SDS011;10728;53.284;10.314;2022-07-21T21:16:02;9.02;;;8.23;;
21140;SDS011;10728;53.284;10.314;2022-07-21T21:18:33;12.30;;;9.38;;
21140;SDS011;10728;53.284;10.314;2022-07-21T21:21:07;10.32;;;9.35;;
21140;SDS011;10728;53.284;10.314;2022-07-21T21:23:38;11.10;;;10.05;;
21140;SDS011;10728;53.284;10.314;2022-07-21T21:26:09;12.35;;;11.18;;
21140;SDS011;10728;53.284;10.314;2022-07-21T21:29:05;15.02;;;11.88;;
21140;SDS011;10728;53.284;10.314;2022-07-21T21:31:33;12.38;;;10.93;;
21140;SDS011;10728;53.284;10.314;2022-07-21T21:34:02;12.25;;;9.65;;
21140;SDS011;10728;53.284;10.314;2022-07-21T21:36:45;14.90;;;11.70;;
21140;SDS011;10728;53.284;10.314;2022-07-21T21:39:11;11.00;;;9.90;;
21140;SDS011;10728;53.284;10.314;2022-07-21T21:41:39;14.15;;;10.85;;
21140;SDS011;10728;53.284;10.314;2022-07-21T21:44:10;11.63;;;10.52;;
21140;SDS011;10728;53.284;10.314;2022-07-21T21:46:56;9.95;;;9.02;;
21140;SDS011;10728;53.284;10.314;2022-07-21T21:49:25;13.77;;;11.05;;
21140;SDS011;10728;53.284;10.314;2022-07-21T21:52:01;16.77;;;13.93;;
21140;SDS011;10728;53.284;10.314;2022-07-21T21:54:37;11.60;;;10.50;;
21140;SDS011;10728;53.284;10.314;2022-07-21T21:57:14;18.30;;;14.32;;
21140;SDS011;10728;53.284;10.314;2022-07-21T21:59:46;19.88;;;14.52;;
21140;SDS011;10728;53.284;10.314;2022-07-21T22:02:14;14.00;;;12.60;;
21140;SDS011;10728;53.284;10.314;2022-07-21T22:04:43;17.75;;;13.57;;
21140;SDS011;10728;53.284;10.314;2022-07-21T22:07:35;13.55;;;12.13;;
21140;SDS011;10728;53.284;10.314;2022-07-21T22:10:07;13.95;;;11.38;;
21140;SDS011;10728;53.284;10.314;2022-07-21T22:12:43;13.45;;;12.02;;
21140;SDS011;10728;53.284;10.314;2022-07-21T22:15:10;13.13;;;11.80;;
21140;SDS011;10728;53.284;10.314;2022-07-21T22:17:36;13.60;;;11.98;;
21140;SDS011;10728;53.284;10.314;2022-07-21T22:20:07;19.83;;;14.70;;
21140;SDS011;10728;53.284;10.314;2022-07-21T22:22:36;12.00;;;10.85;;
21140;SDS011;10728;53.284;10.314;2022-07-21T22:25:05;16.35;;;13.45;;
21140;SDS011;10728;53.284;10.314;2022-07-21T22:27:32;21.70;;;16.23;;
21140;SDS011;10728;53.284;10.314;2022-07-21T22:30:02;18.00;;;14.98;;
21140;SDS011;10728;53.284;10.314;2022-07-21T22:32:29;13.73;;;12.27;;
21140;SDS011;10728;53.284;10.314;2022-07-21T22:34:59;19.95;;;14.45;;
21140;SDS011;10728;53.284;10.314;2022-07-21T22:37:27;12.00;;;10.80;;
21140;SDS011;10728;53.284;10.314;2022-07-21T22:39:55;11.38;;;10.10;;
21140;SDS011;10728;53.284;10.314;2022-07-21T22:42:23;15.00;;;12.93;;
21140;SDS011;10728;53.284;10.314;2022-07-21T22:44:49;12.30;;;10.93;;
21140;SDS011;10728;53.284;10.314;2022-07-21T22:47:15;18.58;;;14.02;;
21140;SDS011;10728;53.284;10.314;2022-07-21T22:49:43;16.98;;;14.52;;
21140;SDS011;10728;53.284;10.314;2022-07-21T22:52:19;14.80;;;13.27;;
21140;SDS011;10728;53.284;10.314;2022-07-21T22:54:50;13.02;;;11.52;;
21140;SDS011;10728;53.284;10.314;2022-07-21T22:57:19;12.27;;;10.98;;
21140;SDS011;10728;53.284;10.314;2022-07-21T22:59:49;21.63;;;15.77;;
21140;SDS011;10728;53.284;10.314;2022-07-21T23:02:15;12.50;;;11.20;;
21140;SDS011;10728;53.284;10.314;2022-07-21T23:04:43;23.73;;;17.13;;
21140;SDS011;10728;53.284;10.314;2022-07-21T23:07:14;15.27;;;11.63;;
21140;SDS011;10728;53.284;10.314;2022-07-21T23:09:45;15.88;;;13.80;;